Time;durP1;ratioP1;P1;durP2;ratioP2;P2;SDS_P1;SDS_P2;PMS_P1;PMS_P2;Temp;Humidity;BMP_temperature;BMP_pressure;BME280_temperature;BME280_humidity;BME280_pressure;Samples;Min_cycle;Max_cycle;Signal;HPM_P1;HPM_P2
2023/05/20 00:00:52;;;;;;;;;;;;;;;14.47;65.06;92734.28;2048214;70;20090;-76
2023/05/20 00:03:19;;;;;;;;;;;;;;;14.58;64.73;92734.81;2048225;70;20438;-76
2023/05/20 00:05:45;;;;;;;;;;;;;;;14.40;64.63;92723.31;2048245;70;20153;-75
2023/05/20 00:08:10;;;;;;;;;;;;;;;14.40;64.49;92720.50;2047868;70;20166;-75
2023/05/20 00:10:36;;;;;;;;;;;;;;;14.42;64.23;92712.09;2048295;70;20517;-76
2023/05/20 00:13:02;;;;;;;;;;;;;;;14.53;64.92;92710.50;2047668;70;20102;-76
2023/05/20 00:15:27;;;;;;;;;;;;;;;14.53;64.85;92704.84;2048480;70;20051;-76
2023/05/20 00:17:53;;;;;;;;;;;;;;;14.51;65.36;92691.28;2048593;70;20106;-77
2023/05/20 00:20:19;;;;;;;;;;;;;;;14.54;64.94;92701.34;2047514;70;20730;-77
2023/05/20 00:22:44;;;;;;;;;;;;;;;14.47;65.31;92705.97;2046851;70;20130;-77
2023/05/20 00:28:16;;;;;;;;;;;;;;;14.46;66.75;92715.84;2051019;70;20058;-77
2023/05/20 00:30:42;;;;;;;;;;;;;;;14.49;66.14;92716.69;2050765;70;20137;-77
2023/05/20 00:33:07;;;;;;;;;;;;;;;14.49;65.63;92717.44;2051657;70;20053;-77
2023/05/20 00:35:33;;;;;;;;;;;;;;;14.56;64.47;92726.94;2053883;70;20217;-76
2023/05/20 00:37:59;;;;;;;;;;;;;;;14.32;64.83;92717.28;2050189;70;20097;-76
2023/05/20 00:40:24;;;;;;;;;;;;;;;14.51;64.43;92716.78;2048195;70;20082;-74
2023/05/20 00:42:50;;;;;;;;;;;;;;;14.51;64.84;92716.06;2048229;70;20051;-74
2023/05/20 00:45:16;;;;;;;;;;;;;;;14.21;65.66;92721.72;2047578;70;20055;-74
2023/05/20 00:47:41;;;;;;;;;;;;;;;14.29;64.88;92716.44;2047376;70;20074;-76
2023/05/20 00:50:09;;;;;;;;;;;;;;;14.29;65.72;92716.44;2047704;70;20078;-76
2023/05/20 00:52:35;;;;;;;;;;;;;;;14.21;66.28;92719.63;2047539;70;20059;-76
2023/05/20 00:55:01;;;;;;;;;;;;;;;14.31;65.65;92718.66;2047593;70;20067;-76
2023/05/20 00:57:27;;;;;;;;;;;;;;;14.10;65.73;92723.34;2047434;70;20093;-74
2023/05/20 00:59:52;;;;;;;;;;;;;;;13.84;67.15;92728.47;2048224;70;20067;-74
2023/05/20 01:02:19;;;;;;;;;;;;;;;14.16;66.07;92731.41;2047431;70;20146;-74
2023/05/20 01:04:46;;;;;;;;;;;;;;;14.19;66.15;92730.13;2048093;70;20059;-75
2023/05/20 01:07:12;;;;;;;;;;;;;;;14.14;66.61;92723.53;2047386;70;20609;-75
2023/05/20 01:09:38;;;;;;;;;;;;;;;14.23;66.20;92722.56;2047437;70;20051;-75
2023/05/20 01:12:16;;;;;;;;;;;;;;;14.20;66.47;92717.41;2046361;70;20078;-75
2023/05/20 01:14:49;;;;;;;;;;;;;;;14.15;66.29;92710.84;2047268;70;20110;-75
2023/05/20 01:17:16;;;;;;;;;;;;;;;14.12;66.24;92711.41;2045278;70;20169;-75
2023/05/20 01:19:43;;;;;;;;;;;;;;;14.13;65.65;92707.91;2044251;70;20090;-75
2023/05/20 01:22:13;;;;;;;;;;;;;;;14.03;66.74;92704.59;2044830;70;20055;-75
2023/05/20 01:24:42;;;;;;;;;;;;;;;14.03;66.28;92703.88;2044853;70;20166;-74
2023/05/20 01:27:12;;;;;;;;;;;;;;;13.96;66.56;92702.84;2044490;70;20257;-75
2023/05/20 01:29:45;;;;;;;;;;;;;;;13.89;67.23;92701.81;2045479;70;20141;-75
2023/05/20 01:32:18;;;;;;;;;;;;;;;13.97;66.92;92702.22;2045032;70;20492;-75
2023/05/20 01:34:45;;;;;;;;;;;;;;;13.86;66.80;92703.09;2044419;70;20077;-76
2023/05/20 01:37:10;;;;;;;;;;;;;;;13.90;66.17;92694.78;2044814;70;20456;-75
2023/05/20 01:39:40;;;;;;;;;;;;;;;13.76;67.31;92699.03;2047864;70;20051;-75
2023/05/20 01:42:07;;;;;;;;;;;;;;;13.85;66.84;92706.56;2044588;70;20083;-75
2023/05/20 01:44:33;;;;;;;;;;;;;;;13.79;66.83;92706.25;2047733;70;20055;-75
2023/05/20 01:47:00;;;;;;;;;;;;;;;13.72;67.00;92705.22;2047964;70;20069;-75
2023/05/20 01:49:26;;;;;;;;;;;;;;;13.72;67.28;92713.72;2044679;70;20085;-75
2023/05/20 01:51:53;;;;;;;;;;;;;;;13.72;66.66;92719.38;2047595;70;20227;-75
2023/05/20 01:54:19;;;;;;;;;;;;;;;13.66;66.48;92714.16;2048155;70;20494;-74
2023/05/20 01:56:46;;;;;;;;;;;;;;;13.52;67.78;92716.28;2047072;70;20055;-74
2023/05/20 01:59:13;;;;;;;;;;;;;;;13.53;66.85;92717.72;2047362;70;20229;-75
2023/05/20 02:01:38;;;;;;;;;;;;;;;13.46;67.86;92715.94;2047110;70;20055;-74
2023/05/20 02:04:04;;;;;;;;;;;;;;;13.53;67.02;92708.50;2047173;70;20077;-74
2023/05/20 02:06:32;;;;;;;;;;;;;;;13.46;67.15;92702.53;2049965;70;20055;-74
2023/05/20 02:08:57;;;;;;;;;;;;;;;13.50;66.55;92709.75;2047253;70;20494;-75
2023/05/20 02:11:23;;;;;;;;;;;;;;;13.50;66.71;92712.59;2047018;70;20055;-75
2023/05/20 02:13:49;;;;;;;;;;;;;;;13.50;66.92;92712.59;2047875;70;20477;-74
2023/05/20 02:16:14;;;;;;;;;;;;;;;13.28;68.07;92707.28;2048113;70;20411;-75
2023/05/20 02:18:41;;;;;;;;;;;;;;;13.35;67.96;92706.22;2050198;70;20226;-75
2023/05/20 02:21:06;;;;;;;;;;;;;;;13.36;67.24;92712.63;2047369;70;20051;-75
2023/05/20 02:23:32;;;;;;;;;;;;;;;13.37;67.09;92714.81;2047267;70;20163;-75
2023/05/20 02:25:57;;;;;;;;;;;;;;;13.34;67.14;92718.19;2050162;70;20051;-75
2023/05/20 02:28:23;;;;;;;;;;;;;;;13.32;67.17;92710.31;2047300;70;20076;-75
2023/05/20 02:30:52;;;;;;;;;;;;;;;13.22;68.16;92718.28;2047946;70;20146;-76
2023/05/20 02:33:18;;;;;;;;;;;;;;;13.18;67.98;92718.78;2047387;70;20138;-74
2023/05/20 02:35:44;;;;;;;;;;;;;;;13.14;68.12;92715.00;2047713;70;20507;-74
2023/05/20 02:38:10;;;;;;;;;;;;;;;13.11;67.99;92716.28;2047270;70;20063;-74
2023/05/20 02:40:36;;;;;;;;;;;;;;;13.03;68.13;92718.69;2048231;70;20475;-75
2023/05/20 02:43:01;;;;;;;;;;;;;;;13.02;68.27;92715.13;2048257;70;20083;-75
2023/05/20 02:45:27;;;;;;;;;;;;;;;13.00;67.63;92705.78;2047873;70;20059;-74
2023/05/20 02:47:53;;;;;;;;;;;;;;;12.92;68.56;92704.03;2047921;70;20054;-75
2023/05/20 02:50:18;;;;;;;;;;;;;;;12.86;68.17;92708.59;2050501;70;20150;-75
2023/05/20 02:52:44;;;;;;;;;;;;;;;12.83;68.44;92710.59;2048646;70;20072;-75
2023/05/20 02:55:10;;;;;;;;;;;;;;;12.72;69.22;92708.59;2048212;70;20081;-74
2023/05/20 02:57:37;;;;;;;;;;;;;;;12.72;68.85;92702.94;2048168;70;20086;-74
2023/05/20 03:00:05;;;;;;;;;;;;;;;12.70;69.24;92705.66;2047920;70;20547;-75
2023/05/20 03:02:31;;;;;;;;;;;;;;;12.70;68.52;92703.59;2047849;70;20063;-75
2023/05/20 03:04:57;;;;;;;;;;;;;;;12.65;68.76;92696.25;2048512;70;20055;-75
2023/05/20 03:07:24;;;;;;;;;;;;;;;12.61;69.23;92698.13;2047879;70;20134;-74
2023/05/20 03:09:49;;;;;;;;;;;;;;;12.53;68.75;92704.06;2047853;70;20070;-75
2023/05/20 03:12:16;;;;;;;;;;;;;;;12.54;69.14;92704.78;2047731;70;20496;-75
2023/05/20 03:14:41;;;;;;;;;;;;;;;12.50;69.00;92707.41;2047876;70;20074;-76
2023/05/20 03:17:07;;;;;;;;;;;;;;;12.45;68.63;92706.44;2047798;70;20062;-76
2023/05/20 03:19:34;;;;;;;;;;;;;;;12.40;69.24;92696.31;2047765;70;20058;-75
2023/05/20 03:22:01;;;;;;;;;;;;;;;12.19;70.50;92700.13;2047894;70;20050;-76
2023/05/20 03:24:27;;;;;;;;;;;;;;;12.35;69.27;92698.16;2047881;70;20546;-75
2023/05/20 03:26:53;;;;;;;;;;;;;;;12.37;69.31;92700.34;2047802;70;20055;-75
2023/05/20 03:29:18;;;;;;;;;;;;;;;12.33;69.04;92698.06;2047673;70;20058;-75
2023/05/20 03:31:45;;;;;;;;;;;;;;;12.35;69.51;92701.00;2047675;70;20162;-75
2023/05/20 03:34:10;;;;;;;;;;;;;;;12.38;69.21;92691.28;2047836;70;20063;-76
2023/05/20 03:36:36;;;;;;;;;;;;;;;12.33;69.79;92686.78;2048323;70;20059;-76
2023/05/20 03:39:03;;;;;;;;;;;;;;;12.34;70.01;92695.97;2047699;70;20077;-75
2023/05/20 03:41:29;;;;;;;;;;;;;;;12.25;70.27;92699.72;2047778;70;20090;-75
2023/05/20 03:43:55;;;;;;;;;;;;;;;12.32;69.25;92687.38;2047877;70;20055;-76
2023/05/20 03:46:20;;;;;;;;;;;;;;;12.48;69.34;92687.53;2047892;70;20055;-74
2023/05/20 03:48:46;;;;;;;;;;;;;;;12.26;70.32;92682.16;2048329;70;20047;-76
2023/05/20 03:51:12;;;;;;;;;;;;;;;12.33;69.14;92686.78;2047666;70;20073;-75
2023/05/20 03:53:38;;;;;;;;;;;;;;;12.46;69.20;92691.72;2047624;70;20043;-76
2023/05/20 03:56:03;;;;;;;;;;;;;;;12.39;69.74;92687.09;2047725;70;20122;-76
2023/05/20 03:58:30;;;;;;;;;;;;;;;12.46;69.12;92688.16;2048128;70;20055;-76
2023/05/20 04:00:55;;;;;;;;;;;;;;;12.48;69.02;92685.44;2047670;70;20059;-75
2023/05/20 04:03:22;;;;;;;;;;;;;;;12.43;69.36;92681.69;2047678;70;20071;-75
2023/05/20 04:05:48;;;;;;;;;;;;;;;12.43;68.74;92692.25;2047623;70;20086;-76
2023/05/20 04:08:18;;;;;;;;;;;;;;;12.49;68.18;92689.00;2047637;70;20055;-76
2023/05/20 04:10:43;;;;;;;;;;;;;;;12.49;68.90;92692.56;2047632;70;20122;-76
2023/05/20 04:13:10;;;;;;;;;;;;;;;12.52;68.75;92693.41;2047595;70;20059;-75
2023/05/20 04:15:36;;;;;;;;;;;;;;;12.56;68.15;92677.41;2047670;70;20072;-76
2023/05/20 04:18:01;;;;;;;;;;;;;;;12.57;67.64;92689.44;2047641;70;20487;-75
2023/05/20 04:20:27;;;;;;;;;;;;;;;12.38;68.35;92688.47;2047689;70;20090;-75
2023/05/20 04:22:55;;;;;;;;;;;;;;;12.48;68.70;92688.28;2048195;70;20057;-76
2023/05/20 04:25:21;;;;;;;;;;;;;;;12.53;68.61;92692.03;2048224;70;20063;-75
2023/05/20 04:27:48;;;;;;;;;;;;;;;12.61;67.82;92679.09;2048083;70;20047;-75
2023/05/20 04:30:16;;;;;;;;;;;;;;;12.61;68.33;92687.56;2047694;70;20055;-75
2023/05/20 04:32:42;;;;;;;;;;;;;;;12.59;68.66;92681.06;2047643;70;20447;-75
2023/05/20 04:35:10;;;;;;;;;;;;;;;12.66;68.31;92677.94;2047638;70;20055;-75
2023/05/20 04:37:37;;;;;;;;;;;;;;;12.34;68.95;92685.41;2047530;70;20140;-75
2023/05/20 04:40:05;;;;;;;;;;;;;;;12.64;67.93;92688.38;2047611;70;20154;-75
2023/05/20 04:42:32;;;;;;;;;;;;;;;12.68;68.31;92688.59;2047549;70;20134;-75
2023/05/20 04:45:00;;;;;;;;;;;;;;;12.71;68.34;92678.88;2047602;70;20055;-75
2023/05/20 04:47:29;;;;;;;;;;;;;;;12.64;68.55;92682.75;2048103;70;20087;-74
2023/05/20 04:49:56;;;;;;;;;;;;;;;12.82;67.41;92678.03;2048011;70;20051;-74
2023/05/20 04:52:25;;;;;;;;;;;;;;;12.84;67.97;92686.66;2047765;70;20078;-75
2023/05/20 04:54:51;;;;;;;;;;;;;;;12.87;68.36;92685.38;2047644;70;20055;-75
2023/05/20 04:57:19;;;;;;;;;;;;;;;12.89;67.89;92696.06;2047451;70;20055;-75
2023/05/20 04:59:46;;;;;;;;;;;;;;;12.87;68.42;92695.94;2047683;70;20104;-76
2023/05/20 05:02:12;;;;;;;;;;;;;;;12.79;68.72;92696.28;2047379;70;20067;-74
2023/05/20 05:04:37;;;;;;;;;;;;;;;12.86;67.84;92698.03;2047585;70;20051;-75
2023/05/20 05:07:04;;;;;;;;;;;;;;;12.84;67.40;92700.03;2047547;70;20051;-74
2023/05/20 05:09:29;;;;;;;;;;;;;;;12.82;68.39;92695.00;2049536;70;20055;-75
2023/05/20 05:11:56;;;;;;;;;;;;;;;12.84;68.60;92694.38;2047970;70;20138;-75
2023/05/20 05:14:22;;;;;;;;;;;;;;;12.82;68.68;92697.81;2050792;70;20149;-75
2023/05/20 05:16:48;;;;;;;;;;;;;;;12.79;68.21;92696.28;2050894;70;20122;-76
2023/05/20 05:19:14;;;;;;;;;;;;;;;13.01;66.92;92693.84;2050781;70;20079;-74
2023/05/20 05:21:40;;;;;;;;;;;;;;;13.10;66.87;92690.09;2050974;70;20451;-74
2023/05/20 05:24:06;;;;;;;;;;;;;;;13.05;67.46;92687.69;2051500;70;20472;-73
2023/05/20 05:26:32;;;;;;;;;;;;;;;12.91;67.59;92687.69;2050744;70;20478;-74
2023/05/20 05:28:58;;;;;;;;;;;;;;;13.07;67.57;92684.97;2050768;70;20486;-74
2023/05/20 05:31:25;;;;;;;;;;;;;;;13.12;68.31;92687.38;2050773;70;20055;-74
2023/05/20 05:33:50;;;;;;;;;;;;;;;13.20;68.85;92684.25;2050847;70;20081;-74
2023/05/20 05:36:16;;;;;;;;;;;;;;;13.31;67.94;92682.66;2051352;70;20080;-74
2023/05/20 05:38:41;;;;;;;;;;;;;;;13.39;66.53;92686.66;2053400;70;20066;-74
2023/05/20 05:41:07;;;;;;;;;;;;;;;13.40;66.12;92676.06;2050866;70;20047;-76
2023/05/20 05:43:33;;;;;;;;;;;;;;;13.35;66.73;92675.13;2050650;70;20062;-75
2023/05/20 05:46:02;;;;;;;;;;;;;;;13.44;67.00;92679.81;2051392;70;20047;-75
2023/05/20 05:48:30;;;;;;;;;;;;;;;13.46;66.48;92679.19;2050876;70;20097;-74
2023/05/20 05:50:56;;;;;;;;;;;;;;;13.62;66.56;92682.81;2050791;70;20062;-75
2023/05/20 05:53:21;;;;;;;;;;;;;;;13.69;66.99;92681.75;2051314;70;20058;-75
2023/05/20 05:55:47;;;;;;;;;;;;;;;13.83;66.56;92678.16;2050695;70;20054;-75
2023/05/20 05:58:14;;;;;;;;;;;;;;;13.95;66.21;92687.22;2050669;70;20054;-75
2023/05/20 06:00:40;;;;;;;;;;;;;;;13.96;64.06;92686.59;2050798;70;20157;-76
2023/05/20 06:03:05;;;;;;;;;;;;;;;14.13;65.00;92679.59;2050660;70;20082;-76
2023/05/20 06:05:34;;;;;;;;;;;;;;;14.05;66.58;92687.72;2051878;70;20505;-75
2023/05/20 06:08:00;;;;;;;;;;;;;;;14.18;66.12;92683.38;2054502;69;20053;-76
2023/05/20 06:10:25;;;;;;;;;;;;;;;14.16;66.57;92678.34;2054593;69;20156;-76
2023/05/20 06:12:51;;;;;;;;;;;;;;;14.25;66.93;92687.97;2054001;70;20050;-76
2023/05/20 06:15:17;;;;;;;;;;;;;;;14.28;65.50;92689.50;2055053;69;20213;-76
2023/05/20 06:17:43;;;;;;;;;;;;;;;14.37;64.54;92682.84;2054404;70;20074;-75
2023/05/20 06:20:09;;;;;;;;;;;;;;;13.77;64.77;92686.34;2054440;70;20058;-75
2023/05/20 06:22:34;;;;;;;;;;;;;;;13.89;64.43;92679.19;2055033;69;20057;-74
2023/05/20 06:25:01;;;;;;;;;;;;;;;13.91;64.04;92676.44;2054392;70;20050;-75
2023/05/20 06:27:28;;;;;;;;;;;;;;;14.26;63.14;92675.25;2054944;69;20077;-74
2023/05/20 06:29:53;;;;;;;;;;;;;;;14.35;63.71;92679.19;2054447;70;20046;-74
2023/05/20 06:32:19;;;;;;;;;;;;;;;14.67;62.03;92675.03;2054547;70;20215;-75
2023/05/20 06:34:44;;;;;;;;;;;;;;;14.80;63.50;92672.75;2054589;70;20458;-76
2023/05/20 06:37:10;;;;;;;;;;;;;;;15.01;62.59;92677.94;2054505;69;20061;-77
2023/05/20 06:39:36;;;;;;;;;;;;;;;15.21;62.80;92675.25;2056019;70;20398;-75
2023/05/20 06:42:02;;;;;;;;;;;;;;;14.82;61.15;92672.84;2056165;70;20054;-76
2023/05/20 06:44:29;;;;;;;;;;;;;;;14.84;61.96;92678.59;2052053;70;20149;-77
2023/05/20 06:47:00;;;;;;;;;;;;;;;14.84;60.84;92672.94;2054629;69;20054;-76
2023/05/20 06:49:25;;;;;;;;;;;;;;;14.47;61.28;92680.47;2055064;69;20117;-77
2023/05/20 06:51:51;;;;;;;;;;;;;;;14.86;61.36;92673.03;2054406;70;20046;-75
2023/05/20 06:54:17;;;;;;;;;;;;;;;15.13;60.93;92663.59;2054469;70;20070;-74
2023/05/20 06:56:43;;;;;;;;;;;;;;;15.38;59.14;92665.34;2054389;70;20070;-75
2023/05/20 06:59:09;;;;;;;;;;;;;;;15.68;58.63;92669.50;2054498;70;20463;-76
2023/05/20 07:01:36;;;;;;;;;;;;;;;15.78;58.73;92666.34;2054565;70;20466;-81
2023/05/20 07:04:02;;;;;;;;;;;;;;;15.86;58.32;92666.69;2054451;70;20050;-75
2023/05/20 07:06:30;;;;;;;;;;;;;;;15.86;58.49;92668.78;2054446;70;20141;-75
2023/05/20 07:08:56;;;;;;;;;;;;;;;15.88;58.50;92661.06;2054894;69;20050;-75
2023/05/20 07:11:22;;;;;;;;;;;;;;;16.01;57.98;92654.50;2054362;70;20188;-75
2023/05/20 07:13:48;;;;;;;;;;;;;;;16.29;57.73;92653.44;2054381;70;20149;-75
2023/05/20 07:16:13;;;;;;;;;;;;;;;16.42;57.02;92655.38;2054396;70;20375;-74
2023/05/20 07:18:44;;;;;;;;;;;;;;;16.31;56.64;92644.97;2054511;70;20395;-75
2023/05/20 07:21:10;;;;;;;;;;;;;;;16.13;57.27;92645.03;2054356;69;20113;-74
2023/05/20 07:24:05;;;;;;;;;;;;;;;16.31;57.36;92642.16;2048196;69;20058;-76
2023/05/20 07:26:32;;;;;;;;;;;;;;;16.24;56.95;92636.25;2054309;70;20489;-74
2023/05/20 07:28:58;;;;;;;;;;;;;;;16.98;56.13;92630.47;2054361;70;20121;-74
2023/05/20 07:31:23;;;;;;;;;;;;;;;17.23;55.53;92632.81;2054377;70;20070;-75
2023/05/20 07:33:49;;;;;;;;;;;;;;;17.12;54.93;92625.28;2054372;70;20442;-75
2023/05/20 07:36:14;;;;;;;;;;;;;;;17.30;55.21;92625.19;2054859;69;20062;-74
2023/05/20 07:38:42;;;;;;;;;;;;;;;17.50;54.50;92614.53;2054287;69;20052;-76
2023/05/20 07:41:08;;;;;;;;;;;;;;;17.48;53.71;92614.44;2054305;69;20055;-75
2023/05/20 07:43:33;;;;;;;;;;;;;;;17.50;53.39;92603.16;2054225;70;20500;-75
2023/05/20 07:46:01;;;;;;;;;;;;;;;17.27;53.06;92604.50;2054335;70;20057;-75
2023/05/20 07:48:26;;;;;;;;;;;;;;;17.60;52.20;92614.13;2054846;69;20058;-74
2023/05/20 07:50:52;;;;;;;;;;;;;;;17.48;53.20;92613.72;2054352;70;20479;-73
2023/05/20 07:53:18;;;;;;;;;;;;;;;17.80;53.60;92611.25;2054825;70;20058;-75
2023/05/20 07:55:43;;;;;;;;;;;;;;;18.12;53.33;92616.53;2055045;69;20059;-75
2023/05/20 07:58:09;;;;;;;;;;;;;;;18.59;51.87;92603.69;2054012;70;20058;-76
2023/05/20 08:00:34;;;;;;;;;;;;;;;18.54;50.67;92602.84;2054350;70;20447;-76
2023/05/20 08:03:03;;;;;;;;;;;;;;;18.63;50.11;92601.69;2054357;70;20503;-74
2023/05/20 08:05:39;;;;;;;;;;;;;;;18.50;50.66;92597.03;2054528;70;20149;-75
2023/05/20 08:08:05;;;;;;;;;;;;;;;19.00;48.29;92608.47;2054305;69;20078;-75
2023/05/20 08:10:42;;;;;;;;;;;;;;;19.20;48.18;92589.09;2054537;70;20058;-75
2023/05/20 08:13:08;;;;;;;;;;;;;;;19.21;46.30;92590.53;2054160;70;20051;-75
2023/05/20 08:15:34;;;;;;;;;;;;;;;19.29;46.96;92587.16;2057091;69;20062;-75
2023/05/20 08:18:00;;;;;;;;;;;;;;;19.36;47.40;92585.19;2054790;69;20082;-75
2023/05/20 08:20:25;;;;;;;;;;;;;;;19.44;47.45;92585.41;2054868;69;20410;-75
2023/05/20 08:22:51;;;;;;;;;;;;;;;19.23;48.27;92590.56;2054249;70;20043;-75
2023/05/20 08:25:16;;;;;;;;;;;;;;;19.39;46.48;92587.44;2054237;70;20046;-73
2023/05/20 08:27:44;;;;;;;;;;;;;;;20.05;47.21;92579.09;2056898;69;20110;-74
2023/05/20 08:30:10;;;;;;;;;;;;;;;20.38;46.07;92582.72;2054174;70;20054;-74
2023/05/20 08:32:36;;;;;;;;;;;;;;;20.69;45.83;92580.56;2055029;70;20225;-75
2023/05/20 08:35:02;;;;;;;;;;;;;;;20.59;43.36;92577.47;2057116;69;20086;-76
2023/05/20 08:37:29;;;;;;;;;;;;;;;20.72;44.42;92576.34;2053877;70;20112;-76
2023/05/20 08:39:55;;;;;;;;;;;;;;;20.52;41.69;92571.63;2054154;70;20058;-77
2023/05/20 08:42:22;;;;;;;;;;;;;;;21.79;42.98;92574.81;2054654;69;20054;-76
2023/05/20 08:44:50;;;;;;;;;;;;;;;21.68;41.74;92576.06;2054252;70;20046;-76
2023/05/20 08:47:16;;;;;;;;;;;;;;;22.07;39.44;92553.78;2054133;70;20062;-76
2023/05/20 08:49:41;;;;;;;;;;;;;;;22.19;38.62;92556.16;2054779;69;20052;-75
2023/05/20 08:52:10;;;;;;;;;;;;;;;22.49;39.93;92558.72;2054651;69;20086;-76
2023/05/20 08:54:46;;;;;;;;;;;;;;;22.61;38.80;92561.06;2054215;69;20138;-76
2023/05/20 08:57:12;;;;;;;;;;;;;;;22.86;38.37;92565.69;2054580;69;20534;-75
2023/05/20 08:59:42;;;;;;;;;;;;;;;23.04;38.01;92568.09;2054764;69;20094;-76
2023/05/20 09:02:09;;;;;;;;;;;;;;;23.61;38.42;92559.41;2054665;70;20502;-76
2023/05/20 09:04:34;;;;;;;;;;;;;;;23.50;37.99;92556.44;2054646;69;20054;-75
2023/05/20 09:07:00;;;;;;;;;;;;;;;24.11;37.44;92552.69;2054763;69;20415;-76
2023/05/20 09:09:25;;;;;;;;;;;;;;;23.25;36.16;92552.56;2054662;69;20130;-76
2023/05/20 09:11:51;;;;;;;;;;;;;;;23.42;37.50;92549.88;2054525;69;20470;-76
2023/05/20 09:14:16;;;;;;;;;;;;;;;23.01;38.80;92555.88;2054614;69;20061;-76
2023/05/20 09:16:42;;;;;;;;;;;;;;;24.01;39.34;92553.34;2054031;70;20503;-77
2023/05/20 09:19:08;;;;;;;;;;;;;;;23.79;36.85;92550.97;2054697;70;20047;-77
2023/05/20 09:21:34;;;;;;;;;;;;;;;24.31;38.07;92547.81;2054726;69;20235;-77
2023/05/20 09:24:03;;;;;;;;;;;;;;;23.67;37.54;92542.97;2051991;69;20055;-76
2023/05/20 09:26:29;;;;;;;;;;;;;;;23.67;35.13;92540.09;2051210;70;20100;-74
2023/05/20 09:28:55;;;;;;;;;;;;;;;24.64;34.97;92535.81;2050793;70;20086;-75
2023/05/20 09:31:24;;;;;;;;;;;;;;;24.34;35.55;92529.13;2051259;70;20047;-75
2023/05/20 09:33:51;;;;;;;;;;;;;;;25.03;34.48;92537.47;2050768;70;20055;-75
2023/05/20 09:36:18;;;;;;;;;;;;;;;24.87;35.50;92528.72;2050757;70;20051;-76
2023/05/20 09:38:46;;;;;;;;;;;;;;;24.41;34.78;92529.19;2051068;70;20105;-76
2023/05/20 09:41:14;;;;;;;;;;;;;;;25.59;34.78;92523.97;2051187;70;20054;-76
2023/05/20 09:43:40;;;;;;;;;;;;;;;26.17;34.25;92519.72;2051248;70;20434;-76
2023/05/20 09:46:07;;;;;;;;;;;;;;;26.54;35.13;92529.09;2051221;70;20055;-76
2023/05/20 09:48:36;;;;;;;;;;;;;;;26.38;31.58;92528.34;2050746;70;20154;-76
2023/05/20 09:51:05;;;;;;;;;;;;;;;26.56;32.27;92523.31;2049217;70;20054;-76
2023/05/20 09:53:31;;;;;;;;;;;;;;;25.57;31.94;92526.84;2050523;70;20054;-75
2023/05/20 09:55:56;;;;;;;;;;;;;;;26.65;32.50;92523.28;2051402;70;20051;-76
2023/05/20 09:58:24;;;;;;;;;;;;;;;27.07;30.17;92519.56;2051152;70;20055;-76
2023/05/20 10:00:49;;;;;;;;;;;;;;;27.21;32.09;92513.03;2051126;70;20051;-75
2023/05/20 10:03:17;;;;;;;;;;;;;;;27.50;30.79;92504.94;2049329;70;20072;-76
2023/05/20 10:05:48;;;;;;;;;;;;;;;27.43;29.92;92501.34;2049524;70;20091;-76
2023/05/20 10:08:38;;;;;;;;;;;;;;;27.80;30.65;92504.06;2050754;70;20453;-75
2023/05/20 10:11:11;;;;;;;;;;;;;;;27.77;30.08;92502.66;2047893;70;20446;-76
2023/05/20 10:13:36;;;;;;;;;;;;;;;28.45;30.34;92506.44;2051301;70;20491;-76
2023/05/20 10:16:05;;;;;;;;;;;;;;;28.79;29.67;92499.59;2050619;70;20054;-75
2023/05/20 10:18:39;;;;;;;;;;;;;;;28.35;28.37;92494.97;2051434;70;20083;-75
2023/05/20 10:21:17;;;;;;;;;;;;;;;28.65;28.70;92491.06;2051188;70;20083;-76
2023/05/20 10:23:43;;;;;;;;;;;;;;;29.21;28.71;92497.00;2053245;70;20078;-76
2023/05/20 10:26:08;;;;;;;;;;;;;;;28.58;29.33;92483.88;2052066;70;20137;-76
2023/05/20 10:28:37;;;;;;;;;;;;;;;29.75;28.20;92483.97;2051134;70;20537;-75
2023/05/20 10:31:14;;;;;;;;;;;;;;;28.23;28.60;92487.09;2051308;70;20047;-74
2023/05/20 10:33:41;;;;;;;;;;;;;;;28.56;29.30;92490.44;2051222;70;20434;-75
2023/05/20 10:36:07;;;;;;;;;;;;;;;30.39;26.77;92483.72;2050594;70;20066;-77
2023/05/20 10:38:33;;;;;;;;;;;;;;;31.75;24.84;92474.56;2050491;70;20067;-75
2023/05/20 10:41:10;;;;;;;;;;;;;;;32.82;23.33;92488.00;2050969;70;20047;-78
2023/05/20 10:43:35;;;;;;;;;;;;;;;33.12;22.66;92486.47;2051047;70;20057;-75
2023/05/20 10:46:03;;;;;;;;;;;;;;;34.88;22.58;92478.94;2051230;70;20058;-76
2023/05/20 10:48:30;;;;;;;;;;;;;;;35.67;21.75;92477.63;2051133;70;20054;-76
2023/05/20 10:50:56;;;;;;;;;;;;;;;34.63;22.65;92484.19;2051259;70;20055;-76
2023/05/20 10:53:23;;;;;;;;;;;;;;;35.21;21.47;92471.25;2051094;70;20110;-76
2023/05/20 10:55:53;;;;;;;;;;;;;;;33.47;21.46;92470.94;2051098;70;20491;-77
2023/05/20 10:58:20;;;;;;;;;;;;;;;30.17;24.47;92458.66;2050914;70;20054;-76
2023/05/20 11:00:46;;;;;;;;;;;;;;;32.09;24.68;92455.59;2051492;70;20444;-76
2023/05/20 11:03:13;;;;;;;;;;;;;;;30.51;25.84;92457.34;2051823;69;20059;-77
2023/05/20 11:05:39;;;;;;;;;;;;;;;30.89;24.86;92452.34;2051250;70;20130;-76
2023/05/20 11:08:08;;;;;;;;;;;;;;;28.60;26.04;92458.53;2052181;70;20054;-77
2023/05/20 11:10:35;;;;;;;;;;;;;;;28.22;27.91;92453.81;2052027;70;20173;-76
2023/05/20 11:13:01;;;;;;;;;;;;;;;28.23;27.00;92451.66;2051460;69;20501;-77
2023/05/20 11:15:26;;;;;;;;;;;;;;;29.09;26.55;92445.69;2051721;69;20050;-76
2023/05/20 11:17:55;;;;;;;;;;;;;;;28.86;26.46;92443.06;2051601;70;20054;-76
2023/05/20 11:20:25;;;;;;;;;;;;;;;28.91;26.24;92446.63;2051544;70;20051;-77
2023/05/20 11:22:51;;;;;;;;;;;;;;;28.22;28.51;92442.22;2051648;69;20051;-77
2023/05/20 11:25:17;;;;;;;;;;;;;;;28.87;27.14;92438.69;2051620;70;20054;-77
2023/05/20 11:27:43;;;;;;;;;;;;;;;29.61;26.83;92437.75;2051453;70;20113;-77
2023/05/20 11:30:10;;;;;;;;;;;;;;;29.79;28.64;92433.88;2051529;70;20057;-76
2023/05/20 11:32:36;;;;;;;;;;;;;;;30.80;26.72;92437.25;2051726;70;20055;-77
2023/05/20 11:35:03;;;;;;;;;;;;;;;30.06;23.51;92426.19;2051191;70;20045;-77
2023/05/20 11:37:30;;;;;;;;;;;;;;;30.64;25.11;92425.88;2050824;70;20075;-77
2023/05/20 11:40:06;;;;;;;;;;;;;;;32.27;21.88;92439.88;2051356;70;20117;-77
2023/05/20 11:42:35;;;;;;;;;;;;;;;35.99;19.51;92451.56;2051436;70;20050;-76
2023/05/20 11:45:01;;;;;;;;;;;;;;;36.07;18.85;92446.09;2051512;70;20063;-76
2023/05/20 11:47:26;;;;;;;;;;;;;;;34.75;18.68;92442.13;2051641;69;20478;-77
2023/05/20 11:49:53;;;;;;;;;;;;;;;31.44;20.38;92442.50;2051613;70;20073;-77
2023/05/20 11:52:19;;;;;;;;;;;;;;;32.23;20.43;92442.16;2051526;70;20130;-77
2023/05/20 11:54:50;;;;;;;;;;;;;;;33.45;20.01;92438.94;2051382;70;20202;-77
2023/05/20 11:57:15;;;;;;;;;;;;;;;33.92;19.72;92442.63;2051655;70;20079;-77
2023/05/20 11:59:43;;;;;;;;;;;;;;;30.58;21.11;92440.53;2050924;70;20047;-77
2023/05/20 12:02:09;;;;;;;;;;;;;;;30.96;21.55;92447.81;2051467;70;20073;-78
2023/05/20 12:04:35;;;;;;;;;;;;;;;32.57;20.09;92449.31;2051450;70;20495;-77
2023/05/20 12:07:02;;;;;;;;;;;;;;;30.56;21.64;92446.38;2051589;69;20419;-77
2023/05/20 12:09:28;;;;;;;;;;;;;;;31.72;20.98;92454.97;2051561;70;20118;-77
2023/05/20 12:11:55;;;;;;;;;;;;;;;30.89;21.26;92461.03;2051302;70;20082;-76
2023/05/20 12:14:21;;;;;;;;;;;;;;;32.47;19.79;92452.50;2052475;70;20146;-77
2023/05/20 12:16:46;;;;;;;;;;;;;;;32.92;19.35;92454.97;2053028;70;20150;-75
2023/05/20 12:19:11;;;;;;;;;;;;;;;33.64;18.66;92460.22;2051527;70;20090;-76
2023/05/20 12:21:37;;;;;;;;;;;;;;;32.83;19.03;92471.22;2051435;69;20053;-76
2023/05/20 12:24:05;;;;;;;;;;;;;;;31.45;20.53;92475.22;2051449;70;20294;-76
2023/05/20 12:26:31;;;;;;;;;;;;;;;32.86;19.59;92458.75;2051402;70;20063;-76
2023/05/20 12:28:57;;;;;;;;;;;;;;;33.24;19.01;92456.28;2051399;70;20483;-77
2023/05/20 12:31:23;;;;;;;;;;;;;;;31.87;19.83;92451.00;2051550;70;20050;-77
2023/05/20 12:33:49;;;;;;;;;;;;;;;32.05;19.69;92463.69;2050855;70;20553;-76
2023/05/20 12:36:14;;;;;;;;;;;;;;;32.62;18.90;92471.78;2051418;70;20050;-76
2023/05/20 12:38:40;;;;;;;;;;;;;;;33.34;19.04;92458.88;2050833;70;20466;-76
2023/05/20 12:41:05;;;;;;;;;;;;;;;33.82;18.87;92461.16;2048117;70;20437;-77
2023/05/20 12:43:31;;;;;;;;;;;;;;;32.41;20.75;92450.47;2048022;70;20126;-76
2023/05/20 12:45:56;;;;;;;;;;;;;;;31.41;20.52;92452.03;2048309;70;20054;-78
2023/05/20 12:48:22;;;;;;;;;;;;;;;29.78;21.76;92464.31;2048064;70;20053;-78